createdAt,value
2022-08-25T06:14:09.155Z,100.00
2022-08-25T06:24:12.149Z,100.00
2022-08-25T06:34:09.059Z,100.00
2022-08-25T06:44:09.044Z,100.00
2022-08-25T06:54:09.007Z,100.00
2022-08-25T07:04:11.774Z,100.00
2022-08-25T07:14:09.001Z,100.00
2022-08-25T07:24:09.238Z,100.00
2022-08-25T07:34:09.317Z,100.00
2022-08-25T07:44:08.899Z,99.22
2022-08-25T07:54:09.080Z,95.16
2022-08-25T08:04:09.187Z,93.95
2022-08-25T08:14:09.019Z,90.15
2022-08-25T08:24:24.825Z,86.72
2022-08-25T08:34:08.977Z,84.57
2022-08-25T08:44:09.050Z,80.75
2022-08-25T08:54:15.173Z,80.40
2022-08-25T09:04:08.994Z,75.26
2022-08-25T09:14:09.052Z,75.14
2022-08-25T09:24:11.624Z,72.67
2022-08-25T09:34:09.286Z,72.20
2022-08-25T09:44:09.083Z,73.57
2022-08-25T09:54:10.443Z,71.69
2022-08-25T10:04:13.949Z,69.36
2022-08-25T10:14:08.949Z,68.68
2022-08-25T10:24:09.032Z,65.58
2022-08-25T10:34:09.030Z,66.36
2022-08-25T10:44:10.844Z,67.12
2022-08-25T10:54:09.206Z,65.48
2022-08-25T11:04:09.093Z,65.42
2022-08-25T11:14:11.347Z,67.44
2022-08-25T11:24:09.286Z,66.46
2022-08-25T11:34:09.278Z,62.61
2022-08-25T11:44:09.323Z,62.84
2022-08-25T11:54:09.237Z,64.30
2022-08-25T12:04:09.305Z,62.29
2022-08-25T12:14:09.344Z,59.90
2022-08-25T12:24:09.322Z,60.04
2022-08-25T12:34:09.136Z,57.58
2022-08-25T12:44:09.356Z,56.92
2022-08-25T12:54:10.458Z,56.06
2022-08-25T13:04:09.481Z,57.20
2022-08-25T13:14:09.462Z,57.59
2022-08-25T13:24:09.195Z,55.23
2022-08-25T13:34:09.311Z,54.44
2022-08-25T13:44:13.303Z,55.34
2022-08-25T13:54:09.407Z,53.73
2022-08-25T14:14:09.301Z,54.15
2022-08-25T14:24:09.366Z,53.40
2022-08-25T14:34:09.452Z,53.92
2022-08-25T14:44:09.497Z,54.46
2022-08-25T14:54:09.202Z,51.86
2022-08-25T15:04:09.428Z,52.92
2022-08-25T15:14:10.806Z,52.47
2022-08-25T15:24:09.413Z,54.17
2022-08-25T15:34:11.739Z,54.90
2022-08-25T15:44:09.573Z,54.67
2022-08-25T15:54:09.585Z,53.93
2022-08-25T16:04:09.513Z,53.99
2022-08-25T16:14:09.495Z,54.65
2022-08-25T16:24:09.536Z,55.03
2022-08-25T16:34:09.596Z,55.37
2022-08-25T16:44:10.944Z,55.44
2022-08-25T16:54:09.878Z,55.42
2022-08-25T17:04:09.798Z,55.83
2022-08-25T17:14:11.031Z,55.58
2022-08-25T17:24:09.777Z,56.29
2022-08-25T17:34:09.712Z,55.81
2022-08-25T17:44:09.828Z,56.62
2022-08-25T17:54:09.844Z,57.64
2022-08-25T18:04:17.241Z,58.07
2022-08-25T18:14:10.797Z,58.94
2022-08-25T18:24:09.898Z,60.72
2022-08-25T18:34:09.880Z,61.06
2022-08-25T18:44:10.601Z,62.09
2022-08-25T18:54:23.369Z,63.36
2022-08-25T19:04:10.018Z,64.10
2022-08-25T19:14:12.495Z,65.69
